sensor_id;sensor_type;location;lat;lon;timestamp;P1;durP1;ratioP1;P2;durP2;ratioP2
23617;SDS011;18207;32.078;34.818;2024-02-21T00:00:35;2.20;;;2.00;;
23617;SDS011;18207;32.078;34.818;2024-02-21T00:03:10;2.00;;;1.90;;
23617;SDS011;18207;32.078;34.818;2024-02-21T00:05:57;2.40;;;2.22;;
23617;SDS011;18207;32.078;34.818;2024-02-21T00:08:32;2.38;;;1.98;;
23617;SDS011;18207;32.078;34.818;2024-02-21T00:11:07;2.53;;;1.92;;
23617;SDS011;18207;32.078;34.818;2024-02-21T00:13:44;1.90;;;1.80;;
23617;SDS011;18207;32.078;34.818;2024-02-21T00:16:28;2.10;;;1.95;;
23617;SDS011;18207;32.078;34.818;2024-02-21T00:19:06;2.13;;;2.03;;
23617;SDS011;18207;32.078;34.818;2024-02-21T00:21:44;2.00;;;1.90;;
23617;SDS011;18207;32.078;34.818;2024-02-21T00:24:21;2.00;;;1.90;;
23617;SDS011;18207;32.078;34.818;2024-02-21T00:26:58;2.20;;;2.10;;
23617;SDS011;18207;32.078;34.818;2024-02-21T00:29:35;2.00;;;1.90;;
23617;SDS011;18207;32.078;34.818;2024-02-21T00:32:14;2.40;;;2.20;;
23617;SDS011;18207;32.078;34.818;2024-02-21T00:34:50;2.10;;;2.00;;
23617;SDS011;18207;32.078;34.818;2024-02-21T00:37:27;1.92;;;1.80;;
23617;SDS011;18207;32.078;34.818;2024-02-21T00:40:04;2.13;;;1.98;;
23617;SDS011;18207;32.078;34.818;2024-02-21T00:42:41;2.13;;;2.03;;
23617;SDS011;18207;32.078;34.818;2024-02-21T00:45:19;2.10;;;1.90;;
23617;SDS011;18207;32.078;34.818;2024-02-21T00:47:59;2.22;;;2.03;;
23617;SDS011;18207;32.078;34.818;2024-02-21T00:50:36;2.17;;;1.98;;
23617;SDS011;18207;32.078;34.818;2024-02-21T00:53:11;2.05;;;1.90;;
23617;SDS011;18207;32.078;34.818;2024-02-21T00:55:49;2.20;;;2.03;;
23617;SDS011;18207;32.078;34.818;2024-02-21T00:58:28;1.95;;;1.85;;
23617;SDS011;18207;32.078;34.818;2024-02-21T01:01:06;1.98;;;1.88;;
23617;SDS011;18207;32.078;34.818;2024-02-21T01:03:45;2.00;;;1.90;;
23617;SDS011;18207;32.078;34.818;2024-02-21T01:06:24;2.03;;;1.92;;
23617;SDS011;18207;32.078;34.818;2024-02-21T01:09:01;1.98;;;1.85;;
23617;SDS011;18207;32.078;34.818;2024-02-21T01:11:39;1.88;;;1.77;;
23617;SDS011;18207;32.078;34.818;2024-02-21T01:14:15;2.15;;;1.98;;
23617;SDS011;18207;32.078;34.818;2024-02-21T01:16:53;2.70;;;1.92;;
23617;SDS011;18207;32.078;34.818;2024-02-21T01:19:32;2.38;;;2.17;;
23617;SDS011;18207;32.078;34.818;2024-02-21T01:22:08;2.25;;;2.05;;
23617;SDS011;18207;32.078;34.818;2024-02-21T01:24:44;2.20;;;1.92;;
23617;SDS011;18207;32.078;34.818;2024-02-21T01:27:19;2.00;;;1.88;;
23617;SDS011;18207;32.078;34.818;2024-02-21T01:29:55;2.00;;;1.90;;
23617;SDS011;18207;32.078;34.818;2024-02-21T01:32:30;2.05;;;1.95;;
23617;SDS011;18207;32.078;34.818;2024-02-21T01:35:08;2.40;;;2.20;;
23617;SDS011;18207;32.078;34.818;2024-02-21T01:37:44;2.00;;;1.90;;
23617;SDS011;18207;32.078;34.818;2024-02-21T01:40:22;1.73;;;1.63;;
23617;SDS011;18207;32.078;34.818;2024-02-21T01:42:57;2.00;;;1.90;;
23617;SDS011;18207;32.078;34.818;2024-02-21T01:45:32;2.15;;;2.05;;
23617;SDS011;18207;32.078;34.818;2024-02-21T01:48:07;1.80;;;1.70;;
23617;SDS011;18207;32.078;34.818;2024-02-21T01:50:45;2.20;;;2.00;;
23617;SDS011;18207;32.078;34.818;2024-02-21T01:53:22;1.92;;;1.83;;
23617;SDS011;18207;32.078;34.818;2024-02-21T01:56:03;1.85;;;1.75;;
23617;SDS011;18207;32.078;34.818;2024-02-21T01:58:41;2.00;;;1.90;;
23617;SDS011;18207;32.078;34.818;2024-02-21T02:01:20;1.73;;;1.63;;
23617;SDS011;18207;32.078;34.818;2024-02-21T02:03:56;2.17;;;1.83;;
23617;SDS011;18207;32.078;34.818;2024-02-21T02:06:41;1.80;;;1.70;;
23617;SDS011;18207;32.078;34.818;2024-02-21T02:09:29;1.60;;;1.50;;
23617;SDS011;18207;32.078;34.818;2024-02-21T02:12:06;2.00;;;1.90;;
23617;SDS011;18207;32.078;34.818;2024-02-21T02:14:46;2.08;;;1.73;;
23617;SDS011;18207;32.078;34.818;2024-02-21T02:17:34;1.70;;;1.60;;
23617;SDS011;18207;32.078;34.818;2024-02-21T02:20:11;1.63;;;1.52;;
23617;SDS011;18207;32.078;34.818;2024-02-21T02:22:50;1.83;;;1.73;;
23617;SDS011;18207;32.078;34.818;2024-02-21T02:25:22;1.77;;;1.67;;
23617;SDS011;18207;32.078;34.818;2024-02-21T02:27:52;1.88;;;1.77;;
23617;SDS011;18207;32.078;34.818;2024-02-21T02:30:22;1.85;;;1.75;;
23617;SDS011;18207;32.078;34.818;2024-02-21T02:32:52;1.77;;;1.67;;
23617;SDS011;18207;32.078;34.818;2024-02-21T02:35:21;1.70;;;1.60;;
23617;SDS011;18207;32.078;34.818;2024-02-21T02:37:51;1.73;;;1.63;;
23617;SDS011;18207;32.078;34.818;2024-02-21T02:40:23;2.10;;;2.00;;
23617;SDS011;18207;32.078;34.818;2024-02-21T02:42:53;1.65;;;1.55;;
23617;SDS011;18207;32.078;34.818;2024-02-21T02:45:23;1.80;;;1.70;;
23617;SDS011;18207;32.078;34.818;2024-02-21T02:47:54;1.85;;;1.75;;
23617;SDS011;18207;32.078;34.818;2024-02-21T02:50:25;2.03;;;1.83;;
23617;SDS011;18207;32.078;34.818;2024-02-21T02:52:55;1.90;;;1.80;;
23617;SDS011;18207;32.078;34.818;2024-02-21T02:55:27;1.70;;;1.60;;
23617;SDS011;18207;32.078;34.818;2024-02-21T02:57:58;1.80;;;1.70;;
23617;SDS011;18207;32.078;34.818;2024-02-21T03:00:27;2.00;;;1.90;;
23617;SDS011;18207;32.078;34.818;2024-02-21T03:02:57;1.90;;;1.80;;
23617;SDS011;18207;32.078;34.818;2024-02-21T03:05:27;2.03;;;1.80;;
23617;SDS011;18207;32.078;34.818;2024-02-21T03:07:57;1.63;;;1.52;;
23617;SDS011;18207;32.078;34.818;2024-02-21T03:10:29;1.77;;;1.67;;
23617;SDS011;18207;32.078;34.818;2024-02-21T03:12:58;1.75;;;1.65;;
23617;SDS011;18207;32.078;34.818;2024-02-21T03:15:28;1.70;;;1.60;;
23617;SDS011;18207;32.078;34.818;2024-02-21T03:17:58;1.70;;;1.60;;
23617;SDS011;18207;32.078;34.818;2024-02-21T03:20:29;1.50;;;1.40;;
23617;SDS011;18207;32.078;34.818;2024-02-21T03:22:59;1.63;;;1.52;;
23617;SDS011;18207;32.078;34.818;2024-02-21T03:25:30;1.80;;;1.70;;
23617;SDS011;18207;32.078;34.818;2024-02-21T03:28:00;1.33;;;1.25;;
23617;SDS011;18207;32.078;34.818;2024-02-21T03:30:30;1.70;;;1.60;;
23617;SDS011;18207;32.078;34.818;2024-02-21T03:33:00;1.60;;;1.50;;
23617;SDS011;18207;32.078;34.818;2024-02-21T03:35:30;1.88;;;1.77;;
23617;SDS011;18207;32.078;34.818;2024-02-21T03:38:00;1.90;;;1.80;;
23617;SDS011;18207;32.078;34.818;2024-02-21T03:40:32;2.00;;;1.90;;
23617;SDS011;18207;32.078;34.818;2024-02-21T03:43:04;1.77;;;1.67;;
23617;SDS011;18207;32.078;34.818;2024-02-21T03:45:34;1.60;;;1.50;;
23617;SDS011;18207;32.078;34.818;2024-02-21T03:48:04;1.80;;;1.70;;
23617;SDS011;18207;32.078;34.818;2024-02-21T03:50:35;1.60;;;1.50;;
23617;SDS011;18207;32.078;34.818;2024-02-21T03:53:05;1.58;;;1.48;;
23617;SDS011;18207;32.078;34.818;2024-02-21T03:55:37;1.88;;;1.77;;
23617;SDS011;18207;32.078;34.818;2024-02-21T03:58:06;1.67;;;1.58;;
23617;SDS011;18207;32.078;34.818;2024-02-21T04:00:36;1.70;;;1.58;;
23617;SDS011;18207;32.078;34.818;2024-02-21T04:03:06;1.80;;;1.70;;
23617;SDS011;18207;32.078;34.818;2024-02-21T04:05:36;1.73;;;1.63;;
23617;SDS011;18207;32.078;34.818;2024-02-21T04:08:06;1.85;;;1.75;;
23617;SDS011;18207;32.078;34.818;2024-02-21T04:10:38;1.70;;;1.60;;
23617;SDS011;18207;32.078;34.818;2024-02-21T04:13:08;2.15;;;1.95;;
23617;SDS011;18207;32.078;34.818;2024-02-21T04:15:38;1.60;;;1.50;;
23617;SDS011;18207;32.078;34.818;2024-02-21T04:18:09;1.55;;;1.42;;
23617;SDS011;18207;32.078;34.818;2024-02-21T04:20:38;1.55;;;1.45;;
23617;SDS011;18207;32.078;34.818;2024-02-21T04:23:08;1.83;;;1.60;;
23617;SDS011;18207;32.078;34.818;2024-02-21T04:25:40;1.75;;;1.65;;
23617;SDS011;18207;32.078;34.818;2024-02-21T04:28:09;1.52;;;1.42;;
23617;SDS011;18207;32.078;34.818;2024-02-21T04:30:39;1.90;;;1.80;;
23617;SDS011;18207;32.078;34.818;2024-02-21T04:33:09;1.58;;;1.48;;
23617;SDS011;18207;32.078;34.818;2024-02-21T04:35:39;1.48;;;1.38;;
23617;SDS011;18207;32.078;34.818;2024-02-21T04:38:09;1.60;;;1.50;;
23617;SDS011;18207;32.078;34.818;2024-02-21T04:40:40;1.60;;;1.50;;
23617;SDS011;18207;32.078;34.818;2024-02-21T04:43:10;1.60;;;1.50;;
23617;SDS011;18207;32.078;34.818;2024-02-21T04:45:40;1.83;;;1.73;;
23617;SDS011;18207;32.078;34.818;2024-02-21T04:48:10;1.80;;;1.70;;
23617;SDS011;18207;32.078;34.818;2024-02-21T04:50:40;1.90;;;1.80;;
23617;SDS011;18207;32.078;34.818;2024-02-21T04:53:10;1.70;;;1.60;;
23617;SDS011;18207;32.078;34.818;2024-02-21T04:55:50;1.75;;;1.65;;
23617;SDS011;18207;32.078;34.818;2024-02-21T04:58:21;1.70;;;1.60;;
23617;SDS011;18207;32.078;34.818;2024-02-21T05:00:51;1.90;;;1.75;;
23617;SDS011;18207;32.078;34.818;2024-02-21T05:03:22;1.80;;;1.70;;
23617;SDS011;18207;32.078;34.818;2024-02-21T05:05:52;2.17;;;1.92;;
23617;SDS011;18207;32.078;34.818;2024-02-21T05:08:22;1.85;;;1.75;;
23617;SDS011;18207;32.078;34.818;2024-02-21T05:10:54;1.90;;;1.80;;
23617;SDS011;18207;32.078;34.818;2024-02-21T05:13:24;2.05;;;1.92;;
23617;SDS011;18207;32.078;34.818;2024-02-21T05:15:55;2.10;;;2.00;;
23617;SDS011;18207;32.078;34.818;2024-02-21T05:18:28;1.90;;;1.80;;
23617;SDS011;18207;32.078;34.818;2024-02-21T05:20:58;2.10;;;1.90;;
23617;SDS011;18207;32.078;34.818;2024-02-21T05:23:29;2.00;;;1.90;;
23617;SDS011;18207;32.078;34.818;2024-02-21T05:26:00;1.92;;;1.80;;
23617;SDS011;18207;32.078;34.818;2024-02-21T05:28:30;1.67;;;1.58;;
23617;SDS011;18207;32.078;34.818;2024-02-21T05:31:00;1.75;;;1.65;;
23617;SDS011;18207;32.078;34.818;2024-02-21T05:33:31;1.92;;;1.80;;
23617;SDS011;18207;32.078;34.818;2024-02-21T05:36:01;2.92;;;1.88;;
23617;SDS011;18207;32.078;34.818;2024-02-21T05:38:31;1.70;;;1.60;;
23617;SDS011;18207;32.078;34.818;2024-02-21T05:41:02;1.92;;;1.83;;
23617;SDS011;18207;32.078;34.818;2024-02-21T05:43:37;1.95;;;1.85;;
23617;SDS011;18207;32.078;34.818;2024-02-21T05:46:07;1.92;;;1.83;;
23617;SDS011;18207;32.078;34.818;2024-02-21T05:48:37;1.70;;;1.60;;
23617;SDS011;18207;32.078;34.818;2024-02-21T05:51:07;1.77;;;1.67;;
23617;SDS011;18207;32.078;34.818;2024-02-21T05:53:36;1.80;;;1.70;;
23617;SDS011;18207;32.078;34.818;2024-02-21T05:56:11;1.60;;;1.50;;
23617;SDS011;18207;32.078;34.818;2024-02-21T05:58:42;1.67;;;1.58;;
23617;SDS011;18207;32.078;34.818;2024-02-21T06:01:12;1.73;;;1.63;;
23617;SDS011;18207;32.078;34.818;2024-02-21T06:03:42;1.75;;;1.65;;
23617;SDS011;18207;32.078;34.818;2024-02-21T06:06:12;1.70;;;1.60;;
23617;SDS011;18207;32.078;34.818;2024-02-21T06:08:42;1.70;;;1.60;;
23617;SDS011;18207;32.078;34.818;2024-02-21T06:11:13;1.55;;;1.45;;
23617;SDS011;18207;32.078;34.818;2024-02-21T06:13:44;1.85;;;1.55;;
23617;SDS011;18207;32.078;34.818;2024-02-21T06:16:13;1.50;;;1.38;;
23617;SDS011;18207;32.078;34.818;2024-02-21T06:18:43;2.35;;;1.58;;
23617;SDS011;18207;32.078;34.818;2024-02-21T06:21:13;1.42;;;1.35;;
23617;SDS011;18207;32.078;34.818;2024-02-21T06:23:43;1.50;;;1.40;;
23617;SDS011;18207;32.078;34.818;2024-02-21T06:26:14;1.83;;;1.50;;
23617;SDS011;18207;32.078;34.818;2024-02-21T06:28:44;1.52;;;1.42;;
23617;SDS011;18207;32.078;34.818;2024-02-21T06:31:14;1.50;;;1.40;;
23617;SDS011;18207;32.078;34.818;2024-02-21T06:33:44;1.80;;;1.70;;
23617;SDS011;18207;32.078;34.818;2024-02-21T06:36:14;2.63;;;1.60;;
23617;SDS011;18207;32.078;34.818;2024-02-21T06:38:44;1.73;;;1.63;;
23617;SDS011;18207;32.078;34.818;2024-02-21T06:41:16;1.73;;;1.60;;
23617;SDS011;18207;32.078;34.818;2024-02-21T06:43:46;2.13;;;1.60;;
23617;SDS011;18207;32.078;34.818;2024-02-21T06:46:25;1.75;;;1.65;;
23617;SDS011;18207;32.078;34.818;2024-02-21T06:48:56;1.58;;;1.48;;
23617;SDS011;18207;32.078;34.818;2024-02-21T06:51:30;1.67;;;1.50;;
23617;SDS011;18207;32.078;34.818;2024-02-21T06:54:01;1.67;;;1.58;;
23617;SDS011;18207;32.078;34.818;2024-02-21T06:56:32;1.42;;;1.33;;
23617;SDS011;18207;32.078;34.818;2024-02-21T06:59:02;1.60;;;1.50;;
23617;SDS011;18207;32.078;34.818;2024-02-21T07:01:32;1.80;;;1.70;;
23617;SDS011;18207;32.078;34.818;2024-02-21T07:04:03;1.70;;;1.60;;
23617;SDS011;18207;32.078;34.818;2024-02-21T07:06:33;1.63;;;1.52;;
23617;SDS011;18207;32.078;34.818;2024-02-21T07:09:02;2.72;;;1.50;;
23617;SDS011;18207;32.078;34.818;2024-02-21T07:11:34;1.45;;;1.33;;
23617;SDS011;18207;32.078;34.818;2024-02-21T07:14:04;1.92;;;1.30;;
23617;SDS011;18207;32.078;34.818;2024-02-21T07:16:34;1.13;;;1.13;;
23617;SDS011;18207;32.078;34.818;2024-02-21T07:19:03;2.22;;;1.50;;
23617;SDS011;18207;32.078;34.818;2024-02-21T07:21:33;1.17;;;1.17;;
23617;SDS011;18207;32.078;34.818;2024-02-21T07:24:05;1.23;;;1.13;;
23617;SDS011;18207;32.078;34.818;2024-02-21T07:26:37;1.38;;;1.27;;
23617;SDS011;18207;32.078;34.818;2024-02-21T07:29:13;1.17;;;1.10;;
23617;SDS011;18207;32.078;34.818;2024-02-21T07:31:43;1.15;;;1.05;;
23617;SDS011;18207;32.078;34.818;2024-02-21T07:34:15;1.20;;;1.10;;
23617;SDS011;18207;32.078;34.818;2024-02-21T07:36:45;1.20;;;1.10;;
23617;SDS011;18207;32.078;34.818;2024-02-21T07:39:15;0.80;;;0.75;;
23617;SDS011;18207;32.078;34.818;2024-02-21T07:41:47;0.75;;;0.75;;
23617;SDS011;18207;32.078;34.818;2024-02-21T07:44:16;0.85;;;0.85;;
23617;SDS011;18207;32.078;34.818;2024-02-21T07:46:46;0.88;;;0.88;;
23617;SDS011;18207;32.078;34.818;2024-02-21T07:49:16;0.80;;;0.80;;
23617;SDS011;18207;32.078;34.818;2024-02-21T07:51:46;1.10;;;1.00;;
23617;SDS011;18207;32.078;34.818;2024-02-21T07:54:16;0.93;;;0.88;;
23617;SDS011;18207;32.078;34.818;2024-02-21T07:56:48;0.68;;;0.63;;
23617;SDS011;18207;32.078;34.818;2024-02-21T07:59:18;0.55;;;0.55;;
23617;SDS011;18207;32.078;34.818;2024-02-21T08:01:50;0.50;;;0.50;;
23617;SDS011;18207;32.078;34.818;2024-02-21T08:04:24;0.75;;;0.75;;
23617;SDS011;18207;32.078;34.818;2024-02-21T08:06:54;0.80;;;0.80;;
23617;SDS011;18207;32.078;34.818;2024-02-21T08:09:26;1.08;;;1.05;;
23617;SDS011;18207;32.078;34.818;2024-02-21T08:11:57;0.70;;;0.70;;
23617;SDS011;18207;32.078;34.818;2024-02-21T08:14:27;1.00;;;1.00;;
23617;SDS011;18207;32.078;34.818;2024-02-21T08:16:57;0.80;;;0.80;;
23617;SDS011;18207;32.078;34.818;2024-02-21T08:19:27;0.80;;;0.80;;
23617;SDS011;18207;32.078;34.818;2024-02-21T08:21:57;0.80;;;0.80;;
23617;SDS011;18207;32.078;34.818;2024-02-21T08:24:30;1.17;;;0.80;;
23617;SDS011;18207;32.078;34.818;2024-02-21T08:27:01;0.77;;;0.77;;
23617;SDS011;18207;32.078;34.818;2024-02-21T08:29:31;0.82;;;0.82;;
23617;SDS011;18207;32.078;34.818;2024-02-21T08:32:01;0.60;;;0.60;;
23617;SDS011;18207;32.078;34.818;2024-02-21T08:34:32;1.63;;;0.93;;
23617;SDS011;18207;32.078;34.818;2024-02-21T08:37:02;0.70;;;0.70;;
23617;SDS011;18207;32.078;34.818;2024-02-21T08:39:32;0.82;;;0.82;;
23617;SDS011;18207;32.078;34.818;2024-02-21T08:42:03;0.98;;;0.88;;
23617;SDS011;18207;32.078;34.818;2024-02-21T08:44:34;1.02;;;0.93;;
23617;SDS011;18207;32.078;34.818;2024-02-21T08:47:04;0.95;;;0.95;;
23617;SDS011;18207;32.078;34.818;2024-02-21T08:49:37;1.30;;;1.20;;
23617;SDS011;18207;32.078;34.818;2024-02-21T08:52:08;0.77;;;0.77;;
23617;SDS011;18207;32.078;34.818;2024-02-21T08:54:38;1.00;;;1.00;;
23617;SDS011;18207;32.078;34.818;2024-02-21T08:57:18;1.30;;;1.20;;
23617;SDS011;18207;32.078;34.818;2024-02-21T08:59:48;0.88;;;0.88;;
23617;SDS011;18207;32.078;34.818;2024-02-21T09:02:18;1.58;;;1.00;;
23617;SDS011;18207;32.078;34.818;2024-02-21T09:04:48;1.15;;;1.05;;
23617;SDS011;18207;32.078;34.818;2024-02-21T09:07:18;0.98;;;0.98;;
23617;SDS011;18207;32.078;34.818;2024-02-21T09:09:48;0.90;;;0.90;;
23617;SDS011;18207;32.078;34.818;2024-02-21T09:12:19;1.30;;;1.20;;
23617;SDS011;18207;32.078;34.818;2024-02-21T09:14:49;0.70;;;0.70;;
23617;SDS011;18207;32.078;34.818;2024-02-21T09:17:19;0.80;;;0.80;;
23617;SDS011;18207;32.078;34.818;2024-02-21T09:19:49;0.65;;;0.65;;
23617;SDS011;18207;32.078;34.818;2024-02-21T09:22:19;0.70;;;0.70;;
23617;SDS011;18207;32.078;34.818;2024-02-21T09:24:49;0.80;;;0.80;;
23617;SDS011;18207;32.078;34.818;2024-02-21T09:27:20;0.88;;;0.88;;
23617;SDS011;18207;32.078;34.818;2024-02-21T09:29:50;0.63;;;0.63;;
23617;SDS011;18207;32.078;34.818;2024-02-21T09:32:21;0.75;;;0.75;;
23617;SDS011;18207;32.078;34.818;2024-02-21T09:34:55;0.98;;;0.98;;
23617;SDS011;18207;32.078;34.818;2024-02-21T09:37:28;0.93;;;0.93;;
23617;SDS011;18207;32.078;34.818;2024-02-21T09:39:58;0.82;;;0.82;;
23617;SDS011;18207;32.078;34.818;2024-02-21T09:42:34;0.80;;;0.80;;
23617;SDS011;18207;32.078;34.818;2024-02-21T09:45:08;0.80;;;0.80;;
23617;SDS011;18207;32.078;34.818;2024-02-21T09:47:50;1.25;;;0.85;;
23617;SDS011;18207;32.078;34.818;2024-02-21T09:50:45;1.08;;;1.00;;
23617;SDS011;18207;32.078;34.818;2024-02-21T09:53:17;0.77;;;0.77;;
23617;SDS011;18207;32.078;34.818;2024-02-21T09:55:48;1.10;;;1.00;;
23617;SDS011;18207;32.078;34.818;2024-02-21T09:58:20;0.80;;;0.80;;
23617;SDS011;18207;32.078;34.818;2024-02-21T10:00:55;0.80;;;0.80;;
23617;SDS011;18207;32.078;34.818;2024-02-21T10:03:30;0.70;;;0.70;;
23617;SDS011;18207;32.078;34.818;2024-02-21T10:06:00;1.23;;;0.90;;
23617;SDS011;18207;32.078;34.818;2024-02-21T10:08:30;0.70;;;0.70;;
23617;SDS011;18207;32.078;34.818;2024-02-21T10:11:02;0.70;;;0.70;;
23617;SDS011;18207;32.078;34.818;2024-02-21T10:13:39;1.00;;;0.70;;
23617;SDS011;18207;32.078;34.818;2024-02-21T10:16:12;0.70;;;0.70;;
23617;SDS011;18207;32.078;34.818;2024-02-21T10:18:42;0.85;;;0.80;;
23617;SDS011;18207;32.078;34.818;2024-02-21T10:21:12;0.88;;;0.80;;
23617;SDS011;18207;32.078;34.818;2024-02-21T10:23:42;0.90;;;0.90;;
23617;SDS011;18207;32.078;34.818;2024-02-21T10:26:14;0.80;;;0.80;;
23617;SDS011;18207;32.078;34.818;2024-02-21T10:28:49;0.77;;;0.77;;
23617;SDS011;18207;32.078;34.818;2024-02-21T10:31:22;0.73;;;0.73;;
23617;SDS011;18207;32.078;34.818;2024-02-21T10:33:56;0.60;;;0.60;;
23617;SDS011;18207;32.078;34.818;2024-02-21T10:36:31;1.02;;;1.02;;
23617;SDS011;18207;32.078;34.818;2024-02-21T10:39:01;0.70;;;0.70;;
23617;SDS011;18207;32.078;34.818;2024-02-21T10:41:31;0.88;;;0.88;;
23617;SDS011;18207;32.078;34.818;2024-02-21T10:44:03;0.75;;;0.75;;
23617;SDS011;18207;32.078;34.818;2024-02-21T10:46:37;1.08;;;0.98;;
23617;SDS011;18207;32.078;34.818;2024-02-21T10:49:12;1.10;;;1.00;;
23617;SDS011;18207;32.078;34.818;2024-02-21T10:51:54;0.80;;;0.70;;
23617;SDS011;18207;32.078;34.818;2024-02-21T10:54:39;0.70;;;0.70;;
23617;SDS011;18207;32.078;34.818;2024-02-21T10:57:17;0.95;;;0.95;;
23617;SDS011;18207;32.078;34.818;2024-02-21T10:59:52;0.70;;;0.70;;
23617;SDS011;18207;32.078;34.818;2024-02-21T11:02:26;0.68;;;0.68;;
23617;SDS011;18207;32.078;34.818;2024-02-21T11:04:58;0.82;;;0.82;;
23617;SDS011;18207;32.078;34.818;2024-02-21T11:07:31;0.88;;;0.80;;
23617;SDS011;18207;32.078;34.818;2024-02-21T11:10:05;0.75;;;0.73;;
23617;SDS011;18207;32.078;34.818;2024-02-21T11:12:52;0.52;;;0.52;;
23617;SDS011;18207;32.078;34.818;2024-02-21T11:15:26;0.73;;;0.73;;
23617;SDS011;18207;32.078;34.818;2024-02-21T11:17:59;0.77;;;0.77;;
23617;SDS011;18207;32.078;34.818;2024-02-21T11:20:33;0.68;;;0.68;;
23617;SDS011;18207;32.078;34.818;2024-02-21T11:23:04;0.70;;;0.70;;
23617;SDS011;18207;32.078;34.818;2024-02-21T11:25:34;0.55;;;0.55;;
23617;SDS011;18207;32.078;34.818;2024-02-21T11:28:04;0.80;;;0.80;;
23617;SDS011;18207;32.078;34.818;2024-02-21T11:30:38;0.90;;;0.90;;
23617;SDS011;18207;32.078;34.818;2024-02-21T11:33:10;0.70;;;0.68;;
23617;SDS011;18207;32.078;34.818;2024-02-21T11:35:42;1.02;;;0.77;;
23617;SDS011;18207;32.078;34.818;2024-02-21T11:38:13;0.80;;;0.70;;
23617;SDS011;18207;32.078;34.818;2024-02-21T11:40:44;0.63;;;0.57;;
23617;SDS011;18207;32.078;34.818;2024-02-21T11:43:15;0.82;;;0.82;;
23617;SDS011;18207;32.078;34.818;2024-02-21T11:45:48;0.90;;;0.90;;
23617;SDS011;18207;32.078;34.818;2024-02-21T11:48:18;1.02;;;0.80;;
23617;SDS011;18207;32.078;34.818;2024-02-21T11:50:53;1.05;;;0.82;;
23617;SDS011;18207;32.078;34.818;2024-02-21T11:53:23;1.15;;;1.10;;
23617;SDS011;18207;32.078;34.818;2024-02-21T11:56:01;0.70;;;0.70;;
23617;SDS011;18207;32.078;34.818;2024-02-21T11:58:32;0.57;;;0.57;;
23617;SDS011;18207;32.078;34.818;2024-02-21T12:01:03;0.80;;;0.80;;
23617;SDS011;18207;32.078;34.818;2024-02-21T12:03:34;0.98;;;0.75;;
23617;SDS011;18207;32.078;34.818;2024-02-21T12:06:05;0.63;;;0.63;;
23617;SDS011;18207;32.078;34.818;2024-02-21T12:08:40;0.77;;;0.77;;
23617;SDS011;18207;32.078;34.818;2024-02-21T12:11:20;0.65;;;0.65;;
23617;SDS011;18207;32.078;34.818;2024-02-21T12:13:58;0.70;;;0.70;;
23617;SDS011;18207;32.078;34.818;2024-02-21T12:16:36;0.65;;;0.65;;
23617;SDS011;18207;32.078;34.818;2024-02-21T12:19:06;0.57;;;0.57;;
23617;SDS011;18207;32.078;34.818;2024-02-21T12:21:37;0.95;;;0.85;;
23617;SDS011;18207;32.078;34.818;2024-02-21T12:24:13;0.68;;;0.68;;
23617;SDS011;18207;32.078;34.818;2024-02-21T12:26:44;0.70;;;0.70;;
23617;SDS011;18207;32.078;34.818;2024-02-21T12:29:14;0.77;;;0.73;;
23617;SDS011;18207;32.078;34.818;2024-02-21T12:31:49;0.60;;;0.60;;
23617;SDS011;18207;32.078;34.818;2024-02-21T12:34:19;1.17;;;0.85;;
23617;SDS011;18207;32.078;34.818;2024-02-21T12:37:10;0.40;;;0.40;;
23617;SDS011;18207;32.078;34.818;2024-02-21T12:39:42;0.68;;;0.68;;
23617;SDS011;18207;32.078;34.818;2024-02-21T12:42:12;0.70;;;0.70;;
23617;SDS011;18207;32.078;34.818;2024-02-21T12:44:42;0.65;;;0.65;;
23617;SDS011;18207;32.078;34.818;2024-02-21T12:47:14;1.05;;;0.90;;
23617;SDS011;18207;32.078;34.818;2024-02-21T12:49:46;0.70;;;0.70;;
23617;SDS011;18207;32.078;34.818;2024-02-21T12:52:16;0.70;;;0.70;;
23617;SDS011;18207;32.078;34.818;2024-02-21T12:54:46;1.05;;;0.63;;
23617;SDS011;18207;32.078;34.818;2024-02-21T12:57:19;0.50;;;0.50;;
23617;SDS011;18207;32.078;34.818;2024-02-21T12:59:55;1.00;;;0.60;;
23617;SDS011;18207;32.078;34.818;2024-02-21T13:02:27;0.60;;;0.60;;
23617;SDS011;18207;32.078;34.818;2024-02-21T13:04:57;0.47;;;0.47;;
23617;SDS011;18207;32.078;34.818;2024-02-21T13:07:27;0.65;;;0.65;;
23617;SDS011;18207;32.078;34.818;2024-02-21T13:10:01;0.70;;;0.70;;
23617;SDS011;18207;32.078;34.818;2024-02-21T13:12:32;0.70;;;0.70;;
23617;SDS011;18207;32.078;34.818;2024-02-21T13:15:03;0.60;;;0.60;;
23617;SDS011;18207;32.078;34.818;2024-02-21T13:17:35;0.85;;;0.75;;
23617;SDS011;18207;32.078;34.818;2024-02-21T13:20:07;0.60;;;0.60;;
23617;SDS011;18207;32.078;34.818;2024-02-21T13:22:38;0.60;;;0.57;;
23617;SDS011;18207;32.078;34.818;2024-02-21T13:25:08;1.15;;;0.93;;
23617;SDS011;18207;32.078;34.818;2024-02-21T13:27:49;0.50;;;0.50;;
23617;SDS011;18207;32.078;34.818;2024-02-21T13:30:19;0.50;;;0.50;;
23617;SDS011;18207;32.078;34.818;2024-02-21T13:32:50;0.68;;;0.68;;
23617;SDS011;18207;32.078;34.818;2024-02-21T13:35:21;0.55;;;0.55;;
23617;SDS011;18207;32.078;34.818;2024-02-21T13:37:52;0.68;;;0.68;;
23617;SDS011;18207;32.078;34.818;2024-02-21T13:40:24;0.50;;;0.50;;
23617;SDS011;18207;32.078;34.818;2024-02-21T13:42:53;0.75;;;0.75;;
23617;SDS011;18207;32.078;34.818;2024-02-21T13:45:23;0.88;;;0.82;;
23617;SDS011;18207;32.078;34.818;2024-02-21T13:47:56;0.70;;;0.65;;
23617;SDS011;18207;32.078;34.818;2024-02-21T13:50:29;0.52;;;0.52;;
23617;SDS011;18207;32.078;34.818;2024-02-21T13:53:09;0.68;;;0.68;;
23617;SDS011;18207;32.078;34.818;2024-02-21T13:55:39;0.55;;;0.55;;
23617;SDS011;18207;32.078;34.818;2024-02-21T13:58:10;0.88;;;0.55;;
23617;SDS011;18207;32.078;34.818;2024-02-21T14:00:41;0.50;;;0.50;;
23617;SDS011;18207;32.078;34.818;2024-02-21T14:03:13;0.82;;;0.63;;
23617;SDS011;18207;32.078;34.818;2024-02-21T14:05:43;0.50;;;0.50;;
23617;SDS011;18207;32.078;34.818;2024-02-21T14:08:15;1.08;;;0.77;;
23617;SDS011;18207;32.078;34.818;2024-02-21T14:10:45;0.50;;;0.50;;
23617;SDS011;18207;32.078;34.818;2024-02-21T14:13:15;0.50;;;0.50;;
23617;SDS011;18207;32.078;34.818;2024-02-21T14:15:45;0.63;;;0.50;;
23617;SDS011;18207;32.078;34.818;2024-02-21T14:18:18;0.85;;;0.85;;
23617;SDS011;18207;32.078;34.818;2024-02-21T14:20:48;0.60;;;0.55;;
23617;SDS011;18207;32.078;34.818;2024-02-21T14:23:19;0.85;;;0.85;;
23617;SDS011;18207;32.078;34.818;2024-02-21T14:25:52;0.50;;;0.50;;
23617;SDS011;18207;32.078;34.818;2024-02-21T14:28:29;0.50;;;0.50;;
23617;SDS011;18207;32.078;34.818;2024-02-21T14:31:02;0.60;;;0.60;;
23617;SDS011;18207;32.078;34.818;2024-02-21T14:33:38;0.60;;;0.60;;
23617;SDS011;18207;32.078;34.818;2024-02-21T14:36:09;0.60;;;0.60;;
23617;SDS011;18207;32.078;34.818;2024-02-21T14:38:42;0.52;;;0.52;;
23617;SDS011;18207;32.078;34.818;2024-02-21T14:41:13;0.55;;;0.55;;
23617;SDS011;18207;32.078;34.818;2024-02-21T14:43:44;0.73;;;0.73;;
23617;SDS011;18207;32.078;34.818;2024-02-21T14:46:14;0.60;;;0.60;;
23617;SDS011;18207;32.078;34.818;2024-02-21T14:48:45;0.60;;;0.60;;
23617;SDS011;18207;32.078;34.818;2024-02-21T14:51:15;0.60;;;0.60;;
23617;SDS011;18207;32.078;34.818;2024-02-21T14:53:45;0.68;;;0.68;;
23617;SDS011;18207;32.078;34.818;2024-02-21T14:56:18;0.75;;;0.75;;
23617;SDS011;18207;32.078;34.818;2024-02-21T14:58:48;0.52;;;0.52;;
23617;SDS011;18207;32.078;34.818;2024-02-21T15:01:22;0.60;;;0.60;;
23617;SDS011;18207;32.078;34.818;2024-02-21T15:03:54;0.60;;;0.60;;